King Hakan — V7WI2 — position and weather

sailwx.info

Track history (hours):
 
Tides and Currents Weather Stations Pressure Air Temp Water Temp Dewpoint Dewpoint Depression Visibility Wind Speed Wind Dir Waves Ship Positions

King Hakan

Last reported at 2014-Oct-01 13:31 UTC. Time now 2014-Oct-01 14:19 UTC.
Position N 51°53' E 004°16'.

Length 229 m; draft 13.7 m.

Type: Cargo ship. MMSI: 538090439.

Date/timePositionNaut miles runAvg speedWind from/ knotsBaromVisibWave heightAir tempDewpointWater temp
2014-Oct-01 13:31N 51°53' E 004°16'0 0.0
2014-Oct-01 12:31N 51°53' E 004°16'0 0.0
2014-Oct-01 11:31N 51°53' E 004°16'0 0.0
2014-Oct-01 10:31N 51°53' E 004°16'0 0.0
2014-Oct-01 09:31N 51°53' E 004°16'0 0.3
2014-Oct-01 08:33N 51°53' E 004°17'2 1.5
2014-Oct-01 07:34N 51°54' E 004°16'7 6.7
2014-Oct-01 06:34N 51°59' E 004°07'7 6.6
2014-Oct-01 05:34N 52°01' E 003°58'2 2.0
2014-Oct-01 04:33N 52°00' E 004°00'5 5.5
2014-Oct-01 03:34N 51°58' E 004°08'3 2.6
2014-Oct-01 02:33N 51°56' E 004°12'0 0.0
2014-Oct-01 01:30N 51°56' E 004°12'0 0.0
2014-Oct-01 00:33N 51°56' E 004°12'0 0.0
2014-Sep-30 23:33N 51°56' E 004°12'0 0.0
2014-Sep-30 22:33N 51°56' E 004°12'0 0.0
2014-Sep-30 21:33N 51°56' E 004°12'0 0.0
2014-Sep-30 20:33N 51°56' E 004°12'0 0.0
2014-Sep-30 19:33N 51°56' E 004°12'0 0.0
2014-Sep-30 18:33N 51°56' E 004°12'0 0.0
2014-Sep-30 17:33N 51°56' E 004°12'0 0.0
2014-Sep-30 16:33N 51°56' E 004°12'0 0.0
2014-Sep-30 15:33N 51°56' E 004°12'0 0.0
2014-Sep-30 14:33N 51°56' E 004°12'0 0.0
2014-Sep-30 13:33N 51°56' E 004°12'0 0.0
2014-Sep-30 12:33N 51°56' E 004°12'0 0.0
2014-Sep-30 11:33N 51°56' E 004°12'0 0.0
2014-Sep-30 10:33N 51°56' E 004°12'0 0.0
2014-Sep-30 09:33N 51°56' E 004°12'0 0.0
2014-Sep-30 08:33N 51°56' E 004°12'0 0.0
2014-Sep-30 07:33N 51°56' E 004°12'0 0.0
2014-Sep-30 06:33N 51°56' E 004°12'0 0.0
2014-Sep-30 05:33N 51°56' E 004°12'0 0.0
2014-Sep-30 04:33N 51°56' E 004°12'0 0.0
2014-Sep-30 03:33N 51°56' E 004°12'0 0.0
2014-Sep-30 02:33N 51°56' E 004°12'0 0.0
2014-Sep-30 01:33N 51°56' E 004°12'0 0.0
2014-Sep-30 00:33N 51°56' E 004°12'0 0.0
2014-Sep-29 23:33N 51°56' E 004°12'0 0.0
2014-Sep-29 22:33N 51°56' E 004°12'0 0.0
2014-Sep-29 21:33N 51°56' E 004°12'0 0.0
2014-Sep-29 20:33N 51°56' E 004°12'0 0.0
2014-Sep-29 19:33N 51°56' E 004°12'0 0.0
2014-Sep-29 18:33N 51°56' E 004°12'0 0.0
2014-Sep-29 17:33N 51°56' E 004°12'0 0.0
2014-Sep-29 16:33N 51°56' E 004°12'0 0.0
2014-Sep-29 15:33N 51°56' E 004°12'0 0.0
2014-Sep-29 14:33N 51°56' E 004°12'0 0.0
2014-Sep-29 13:33N 51°56' E 004°12'0 0.0
2014-Sep-29 12:30N 51°56' E 004°12'0 0.0
2014-Sep-29 11:33N 51°56' E 004°12'0 0.0
2014-Sep-29 10:33N 51°56' E 004°12'0 0.0
2014-Sep-29 09:30N 51°56' E 004°12'0 0.0
2014-Sep-29 08:33N 51°56' E 004°12'1 0.7
2014-Sep-29 07:33N 51°56' E 004°11'8 7.6
2014-Sep-29 06:33N 52°00' E 003°60'1010.4
2014-Sep-29 05:33N 52°00' E 003°43'1110.7
2014-Sep-29 04:33N 51°56' E 003°26'1110.6
2014-Sep-29 03:31N 51°53' E 003°10'1212.8
2014-Sep-29 02:33N 51°49' E 002°50'1211.9
2014-Sep-29 01:33N 51°43' E 002°34'1211.4
2014-Sep-29 00:33N 51°35' E 002°21'1010.3
2014-Sep-28 23:32N 51°27' E 002°10'9 9.5
2014-Sep-28 22:33N 51°20' E 001°60'9 9.2
2014-Sep-28 21:33N 51°14' E 001°50'9 8.9
2014-Sep-28 20:33N 51°07' E 001°41'9 9.4
2014-Sep-28 19:33N 50°60' E 001°31'10 9.6
2014-Sep-28 18:33N 50°51' E 001°24'2010.1
2014-Sep-28 16:32N 50°34' E 001°06'1111.2
2014-Sep-28 15:33N 50°29' E 000°51'1111.5
2014-Sep-28 14:33N 50°26' E 000°34'1211.7
2014-Sep-28 13:33N 50°23' E 000°16'2613.0
2014-Sep-28 11:33N 50°16' W 000°23'1514.5
2014-Sep-28 10:30N 50°12' W 000°46'1415.0
2014-Sep-28 09:34N 50°08' W 001°07'1514.6
2014-Sep-28 08:33N 50°03' W 001°29'1713.3
2014-Sep-28 07:18N 49°60' W 001°54'912.0
2014-Sep-28 06:33N 49°57' W 002°08'  
2014-Sep-25 14:33N 40°04' W 010°48'  
Track history (hours):
 
Tides and Currents Weather Stations Pressure Air Temp Water Temp Dewpoint Dewpoint Depression Visibility Wind Speed Wind Dir Waves Ship Positions

King Hakan

Last reported at 2014-Oct-01 13:31 UTC. Time now 2014-Oct-01 14:19 UTC.
Position N 51°53' E 004°16'.

Length 229 m; draft 13.7 m.

Type: Cargo ship. MMSI: 538090439.

Date/timePositionNaut miles runAvg speedWind from/ knotsBaromVisibWave heightAir tempDewpointWater temp
2014-Oct-01 13:31N 51°53' E 004°16'0 0.0
2014-Oct-01 12:31N 51°53' E 004°16'0 0.0
2014-Oct-01 11:31N 51°53' E 004°16'0 0.0
2014-Oct-01 10:31N 51°53' E 004°16'0 0.0
2014-Oct-01 09:31N 51°53' E 004°16'0 0.3
2014-Oct-01 08:33N 51°53' E 004°17'2 1.5
2014-Oct-01 07:34N 51°54' E 004°16'7 6.7
2014-Oct-01 06:34N 51°59' E 004°07'7 6.6
2014-Oct-01 05:34N 52°01' E 003°58'2 2.0
2014-Oct-01 04:33N 52°00' E 004°00'5 5.5
2014-Oct-01 03:34N 51°58' E 004°08'3 2.6
2014-Oct-01 02:33N 51°56' E 004°12'0 0.0
2014-Oct-01 01:30N 51°56' E 004°12'0 0.0
2014-Oct-01 00:33N 51°56' E 004°12'0 0.0
2014-Sep-30 23:33N 51°56' E 004°12'0 0.0
2014-Sep-30 22:33N 51°56' E 004°12'0 0.0
2014-Sep-30 21:33N 51°56' E 004°12'0 0.0
2014-Sep-30 20:33N 51°56' E 004°12'0 0.0
2014-Sep-30 19:33N 51°56' E 004°12'0 0.0
2014-Sep-30 18:33N 51°56' E 004°12'0 0.0
2014-Sep-30 17:33N 51°56' E 004°12'0 0.0
2014-Sep-30 16:33N 51°56' E 004°12'0 0.0
2014-Sep-30 15:33N 51°56' E 004°12'0 0.0
2014-Sep-30 14:33N 51°56' E 004°12'0 0.0
2014-Sep-30 13:33N 51°56' E 004°12'0 0.0
2014-Sep-30 12:33N 51°56' E 004°12'0 0.0
2014-Sep-30 11:33N 51°56' E 004°12'0 0.0
2014-Sep-30 10:33N 51°56' E 004°12'0 0.0
2014-Sep-30 09:33N 51°56' E 004°12'0 0.0
2014-Sep-30 08:33N 51°56' E 004°12'0 0.0
2014-Sep-30 07:33N 51°56' E 004°12'0 0.0
2014-Sep-30 06:33N 51°56' E 004°12'0 0.0
2014-Sep-30 05:33N 51°56' E 004°12'0 0.0
2014-Sep-30 04:33N 51°56' E 004°12'0 0.0
2014-Sep-30 03:33N 51°56' E 004°12'0 0.0
2014-Sep-30 02:33N 51°56' E 004°12'0 0.0
2014-Sep-30 01:33N 51°56' E 004°12'0 0.0
2014-Sep-30 00:33N 51°56' E 004°12'0 0.0
2014-Sep-29 23:33N 51°56' E 004°12'0 0.0
2014-Sep-29 22:33N 51°56' E 004°12'0 0.0
2014-Sep-29 21:33N 51°56' E 004°12'0 0.0
2014-Sep-29 20:33N 51°56' E 004°12'0 0.0
2014-Sep-29 19:33N 51°56' E 004°12'0 0.0
2014-Sep-29 18:33N 51°56' E 004°12'0 0.0
2014-Sep-29 17:33N 51°56' E 004°12'0 0.0
2014-Sep-29 16:33N 51°56' E 004°12'0 0.0
2014-Sep-29 15:33N 51°56' E 004°12'0 0.0
2014-Sep-29 14:33N 51°56' E 004°12'0 0.0
2014-Sep-29 13:33N 51°56' E 004°12'0 0.0
2014-Sep-29 12:30N 51°56' E 004°12'0 0.0
2014-Sep-29 11:33N 51°56' E 004°12'0 0.0
2014-Sep-29 10:33N 51°56' E 004°12'0 0.0
2014-Sep-29 09:30N 51°56' E 004°12'0 0.0
2014-Sep-29 08:33N 51°56' E 004°12'1 0.7
2014-Sep-29 07:33N 51°56' E 004°11'8 7.6
2014-Sep-29 06:33N 52°00' E 003°60'1010.4
2014-Sep-29 05:33N 52°00' E 003°43'1110.7
2014-Sep-29 04:33N 51°56' E 003°26'1110.6
2014-Sep-29 03:31N 51°53' E 003°10'1212.8
2014-Sep-29 02:33N 51°49' E 002°50'1211.9
2014-Sep-29 01:33N 51°43' E 002°34'1211.4
2014-Sep-29 00:33N 51°35' E 002°21'1010.3
2014-Sep-28 23:32N 51°27' E 002°10'9 9.5
2014-Sep-28 22:33N 51°20' E 001°60'9 9.2
2014-Sep-28 21:33N 51°14' E 001°50'9 8.9
2014-Sep-28 20:33N 51°07' E 001°41'9 9.4
2014-Sep-28 19:33N 50°60' E 001°31'10 9.6
2014-Sep-28 18:33N 50°51' E 001°24'2010.1
2014-Sep-28 16:32N 50°34' E 001°06'1111.2
2014-Sep-28 15:33N 50°29' E 000°51'1111.5
2014-Sep-28 14:33N 50°26' E 000°34'1211.7
2014-Sep-28 13:33N 50°23' E 000°16'2613.0
2014-Sep-28 11:33N 50°16' W 000°23'1514.5
2014-Sep-28 10:30N 50°12' W 000°46'1415.0
2014-Sep-28 09:34N 50°08' W 001°07'1514.6
2014-Sep-28 08:33N 50°03' W 001°29'1713.3
2014-Sep-28 07:18N 49°60' W 001°54'912.0
2014-Sep-28 06:33N 49°57' W 002°08'  
2014-Sep-25 14:33N 40°04' W 010°48'  

Dump ship's entire track history